sensor_id;sensor_type;location;lat;lon;timestamp;P1;durP1;ratioP1;P2;durP2;ratioP2
21820;SDS011;11073;48.586;12.066;2022-07-11T00:01:12;1.15;;;0.80;;
21820;SDS011;11073;48.586;12.066;2022-07-11T00:03:41;0.75;;;0.55;;
21820;SDS011;11073;48.586;12.066;2022-07-11T00:06:11;3.13;;;0.85;;
21820;SDS011;11073;48.586;12.066;2022-07-11T00:08:40;1.52;;;0.68;;
21820;SDS011;11073;48.586;12.066;2022-07-11T00:11:09;0.85;;;0.50;;
21820;SDS011;11073;48.586;12.066;2022-07-11T00:13:37;2.20;;;0.77;;
21820;SDS011;11073;48.586;12.066;2022-07-11T00:16:07;3.30;;;1.00;;
21820;SDS011;11073;48.586;12.066;2022-07-11T00:18:40;1.50;;;0.80;;
21820;SDS011;11073;48.586;12.066;2022-07-11T00:21:09;2.05;;;0.80;;
21820;SDS011;11073;48.586;12.066;2022-07-11T00:23:38;1.23;;;0.80;;
21820;SDS011;11073;48.586;12.066;2022-07-11T00:26:07;2.50;;;0.80;;
21820;SDS011;11073;48.586;12.066;2022-07-11T00:28:36;2.08;;;1.02;;
21820;SDS011;11073;48.586;12.066;2022-07-11T00:31:05;1.58;;;0.60;;
21820;SDS011;11073;48.586;12.066;2022-07-11T00:33:35;1.00;;;0.63;;
21820;SDS011;11073;48.586;12.066;2022-07-11T00:36:06;1.58;;;0.50;;
21820;SDS011;11073;48.586;12.066;2022-07-11T00:38:35;2.08;;;0.80;;
21820;SDS011;11073;48.586;12.066;2022-07-11T00:41:04;3.78;;;1.00;;
21820;SDS011;11073;48.586;12.066;2022-07-11T00:43:33;1.70;;;0.50;;
21820;SDS011;11073;48.586;12.066;2022-07-11T00:46:03;1.85;;;0.75;;
21820;SDS011;11073;48.586;12.066;2022-07-11T00:48:33;1.52;;;0.80;;
21820;SDS011;11073;48.586;12.066;2022-07-11T00:51:03;1.00;;;0.80;;
21820;SDS011;11073;48.586;12.066;2022-07-11T00:53:34;1.58;;;0.90;;
21820;SDS011;11073;48.586;12.066;2022-07-11T00:56:04;0.90;;;0.52;;
21820;SDS011;11073;48.586;12.066;2022-07-11T00:58:33;3.80;;;0.95;;
21820;SDS011;11073;48.586;12.066;2022-07-11T01:01:03;2.35;;;0.60;;
21820;SDS011;11073;48.586;12.066;2022-07-11T01:03:33;1.42;;;0.60;;
21820;SDS011;11073;48.586;12.066;2022-07-11T01:06:07;2.22;;;0.73;;
21820;SDS011;11073;48.586;12.066;2022-07-11T01:08:38;3.65;;;0.85;;
21820;SDS011;11073;48.586;12.066;2022-07-11T01:11:08;1.00;;;0.60;;
21820;SDS011;11073;48.586;12.066;2022-07-11T01:13:39;1.95;;;0.80;;
21820;SDS011;11073;48.586;12.066;2022-07-11T01:16:09;1.20;;;0.70;;
21820;SDS011;11073;48.586;12.066;2022-07-11T01:18:41;1.90;;;0.60;;
21820;SDS011;11073;48.586;12.066;2022-07-11T01:21:18;3.03;;;0.50;;
21820;SDS011;11073;48.586;12.066;2022-07-11T01:23:59;1.13;;;0.57;;
21820;SDS011;11073;48.586;12.066;2022-07-11T01:26:29;1.08;;;0.70;;
21820;SDS011;11073;48.586;12.066;2022-07-11T01:29:21;2.08;;;0.60;;
21820;SDS011;11073;48.586;12.066;2022-07-11T01:31:51;0.95;;;0.60;;
21820;SDS011;11073;48.586;12.066;2022-07-11T01:34:19;1.48;;;0.82;;
21820;SDS011;11073;48.586;12.066;2022-07-11T01:36:48;1.52;;;0.60;;
21820;SDS011;11073;48.586;12.066;2022-07-11T01:39:18;2.45;;;0.60;;
21820;SDS011;11073;48.586;12.066;2022-07-11T01:41:47;2.17;;;0.63;;
21820;SDS011;11073;48.586;12.066;2022-07-11T01:44:16;1.42;;;0.60;;
21820;SDS011;11073;48.586;12.066;2022-07-11T01:47:07;2.17;;;0.80;;
21820;SDS011;11073;48.586;12.066;2022-07-11T01:49:36;1.00;;;0.80;;
21820;SDS011;11073;48.586;12.066;2022-07-11T01:52:05;1.45;;;0.63;;
21820;SDS011;11073;48.586;12.066;2022-07-11T01:54:35;1.80;;;0.70;;
21820;SDS011;11073;48.586;12.066;2022-07-11T01:57:04;2.72;;;0.80;;
21820;SDS011;11073;48.586;12.066;2022-07-11T01:59:54;0.90;;;0.80;;
21820;SDS011;11073;48.586;12.066;2022-07-11T02:02:23;1.70;;;0.73;;
21820;SDS011;11073;48.586;12.066;2022-07-11T02:04:52;1.25;;;0.60;;
21820;SDS011;11073;48.586;12.066;2022-07-11T02:07:21;1.33;;;1.00;;
21820;SDS011;11073;48.586;12.066;2022-07-11T02:10:05;0.85;;;0.60;;
21820;SDS011;11073;48.586;12.066;2022-07-11T02:12:35;3.33;;;1.10;;
21820;SDS011;11073;48.586;12.066;2022-07-11T02:15:04;1.52;;;0.90;;
21820;SDS011;11073;48.586;12.066;2022-07-11T02:17:33;2.58;;;0.70;;
21820;SDS011;11073;48.586;12.066;2022-07-11T02:20:01;1.45;;;0.85;;
21820;SDS011;11073;48.586;12.066;2022-07-11T02:22:30;1.67;;;0.73;;
21820;SDS011;11073;48.586;12.066;2022-07-11T02:25:01;1.35;;;0.80;;
21820;SDS011;11073;48.586;12.066;2022-07-11T02:27:31;1.23;;;0.60;;
21820;SDS011;11073;48.586;12.066;2022-07-11T02:30:00;1.88;;;0.80;;
21820;SDS011;11073;48.586;12.066;2022-07-11T02:32:28;2.47;;;1.00;;
21820;SDS011;11073;48.586;12.066;2022-07-11T02:34:57;3.13;;;1.13;;
21820;SDS011;11073;48.586;12.066;2022-07-11T02:37:26;1.10;;;0.82;;
21820;SDS011;11073;48.586;12.066;2022-07-11T02:39:55;1.77;;;0.75;;
21820;SDS011;11073;48.586;12.066;2022-07-11T02:42:25;3.28;;;0.85;;
21820;SDS011;11073;48.586;12.066;2022-07-11T02:44:55;3.08;;;1.00;;
21820;SDS011;11073;48.586;12.066;2022-07-11T02:47:23;2.80;;;1.00;;
21820;SDS011;11073;48.586;12.066;2022-07-11T02:49:52;2.72;;;0.73;;
21820;SDS011;11073;48.586;12.066;2022-07-11T02:52:21;2.17;;;0.90;;
21820;SDS011;11073;48.586;12.066;2022-07-11T02:54:49;2.20;;;1.00;;
21820;SDS011;11073;48.586;12.066;2022-07-11T02:57:18;2.60;;;0.90;;
21820;SDS011;11073;48.586;12.066;2022-07-11T02:59:47;1.67;;;0.80;;
21820;SDS011;11073;48.586;12.066;2022-07-11T03:02:17;2.03;;;0.90;;
21820;SDS011;11073;48.586;12.066;2022-07-11T03:04:47;1.90;;;0.80;;
21820;SDS011;11073;48.586;12.066;2022-07-11T03:07:15;1.52;;;0.70;;
21820;SDS011;11073;48.586;12.066;2022-07-11T03:09:44;0.95;;;0.80;;
21820;SDS011;11073;48.586;12.066;2022-07-11T03:12:13;1.65;;;0.80;;
21820;SDS011;11073;48.586;12.066;2022-07-11T03:14:41;3.22;;;0.93;;
21820;SDS011;11073;48.586;12.066;2022-07-11T03:17:10;2.03;;;0.90;;
21820;SDS011;11073;48.586;12.066;2022-07-11T03:19:40;1.67;;;0.90;;
21820;SDS011;11073;48.586;12.066;2022-07-11T03:22:09;2.60;;;0.90;;
21820;SDS011;11073;48.586;12.066;2022-07-11T03:24:38;1.90;;;0.90;;
21820;SDS011;11073;48.586;12.066;2022-07-11T03:27:08;2.05;;;0.70;;
21820;SDS011;11073;48.586;12.066;2022-07-11T03:29:39;2.83;;;0.90;;
21820;SDS011;11073;48.586;12.066;2022-07-11T03:32:09;2.45;;;1.00;;
21820;SDS011;11073;48.586;12.066;2022-07-11T03:34:38;3.30;;;1.02;;
21820;SDS011;11073;48.586;12.066;2022-07-11T03:37:08;0.95;;;0.75;;
21820;SDS011;11073;48.586;12.066;2022-07-11T03:39:37;1.75;;;0.73;;
21820;SDS011;11073;48.586;12.066;2022-07-11T03:42:05;1.48;;;0.93;;
21820;SDS011;11073;48.586;12.066;2022-07-11T03:44:34;2.33;;;0.88;;
21820;SDS011;11073;48.586;12.066;2022-07-11T03:47:03;2.85;;;1.08;;
21820;SDS011;11073;48.586;12.066;2022-07-11T03:49:32;1.05;;;0.80;;
21820;SDS011;11073;48.586;12.066;2022-07-11T03:52:00;1.00;;;0.80;;
21820;SDS011;11073;48.586;12.066;2022-07-11T03:54:30;2.03;;;0.80;;
21820;SDS011;11073;48.586;12.066;2022-07-11T03:56:59;1.00;;;0.82;;
21820;SDS011;11073;48.586;12.066;2022-07-11T03:59:28;3.50;;;0.98;;
21820;SDS011;11073;48.586;12.066;2022-07-11T04:01:57;2.83;;;1.00;;
21820;SDS011;11073;48.586;12.066;2022-07-11T04:04:25;4.13;;;1.00;;
21820;SDS011;11073;48.586;12.066;2022-07-11T04:06:54;1.88;;;0.85;;
21820;SDS011;11073;48.586;12.066;2022-07-11T04:09:23;2.72;;;1.00;;
21820;SDS011;11073;48.586;12.066;2022-07-11T04:11:54;1.67;;;1.05;;
21820;SDS011;11073;48.586;12.066;2022-07-11T04:14:23;2.40;;;1.15;;
21820;SDS011;11073;48.586;12.066;2022-07-11T04:16:52;0.70;;;0.70;;
21820;SDS011;11073;48.586;12.066;2022-07-11T04:19:20;3.10;;;1.05;;
21820;SDS011;11073;48.586;12.066;2022-07-11T04:21:50;1.75;;;0.90;;
21820;SDS011;11073;48.586;12.066;2022-07-11T04:24:19;0.77;;;0.70;;
21820;SDS011;11073;48.586;12.066;2022-07-11T04:26:48;2.95;;;0.95;;
21820;SDS011;11073;48.586;12.066;2022-07-11T04:29:18;2.80;;;0.85;;
21820;SDS011;11073;48.586;12.066;2022-07-11T04:31:46;3.03;;;1.10;;
21820;SDS011;11073;48.586;12.066;2022-07-11T04:34:15;1.90;;;1.08;;
21820;SDS011;11073;48.586;12.066;2022-07-11T04:36:45;2.03;;;0.75;;
21820;SDS011;11073;48.586;12.066;2022-07-11T04:39:14;3.03;;;1.10;;
21820;SDS011;11073;48.586;12.066;2022-07-11T04:41:43;2.10;;;0.90;;
21820;SDS011;11073;48.586;12.066;2022-07-11T04:44:12;2.28;;;0.93;;
21820;SDS011;11073;48.586;12.066;2022-07-11T04:46:42;2.50;;;0.93;;
21820;SDS011;11073;48.586;12.066;2022-07-11T04:49:10;2.70;;;0.98;;
21820;SDS011;11073;48.586;12.066;2022-07-11T04:51:39;1.80;;;0.90;;
21820;SDS011;11073;48.586;12.066;2022-07-11T04:54:08;2.47;;;0.80;;
21820;SDS011;11073;48.586;12.066;2022-07-11T04:56:37;1.95;;;0.90;;
21820;SDS011;11073;48.586;12.066;2022-07-11T04:59:05;3.10;;;1.10;;
21820;SDS011;11073;48.586;12.066;2022-07-11T05:01:35;4.47;;;1.00;;
21820;SDS011;11073;48.586;12.066;2022-07-11T05:04:05;2.17;;;0.93;;
21820;SDS011;11073;48.586;12.066;2022-07-11T05:06:34;3.03;;;1.30;;
21820;SDS011;11073;48.586;12.066;2022-07-11T05:09:03;9.07;;;1.83;;
21820;SDS011;11073;48.586;12.066;2022-07-11T05:11:35;8.05;;;1.55;;
21820;SDS011;11073;48.586;12.066;2022-07-11T05:14:04;7.25;;;1.70;;
21820;SDS011;11073;48.586;12.066;2022-07-11T05:16:33;10.32;;;1.63;;
21820;SDS011;11073;48.586;12.066;2022-07-11T05:19:02;8.75;;;1.60;;
21820;SDS011;11073;48.586;12.066;2022-07-11T05:21:32;5.68;;;1.20;;
21820;SDS011;11073;48.586;12.066;2022-07-11T05:24:01;5.18;;;1.20;;
21820;SDS011;11073;48.586;12.066;2022-07-11T05:26:29;4.00;;;1.05;;
21820;SDS011;11073;48.586;12.066;2022-07-11T05:28:58;2.10;;;1.15;;
21820;SDS011;11073;48.586;12.066;2022-07-11T05:31:27;5.28;;;1.23;;
21820;SDS011;11073;48.586;12.066;2022-07-11T05:33:57;5.82;;;1.42;;
21820;SDS011;11073;48.586;12.066;2022-07-11T05:36:25;3.50;;;1.08;;
21820;SDS011;11073;48.586;12.066;2022-07-11T05:38:55;2.78;;;1.00;;
21820;SDS011;11073;48.586;12.066;2022-07-11T05:41:24;2.70;;;1.10;;
21820;SDS011;11073;48.586;12.066;2022-07-11T05:43:53;4.78;;;1.20;;
21820;SDS011;11073;48.586;12.066;2022-07-11T05:46:21;4.78;;;1.20;;
21820;SDS011;11073;48.586;12.066;2022-07-11T05:48:50;3.00;;;1.50;;
21820;SDS011;11073;48.586;12.066;2022-07-11T05:51:23;4.50;;;1.30;;
21820;SDS011;11073;48.586;12.066;2022-07-11T05:53:51;4.30;;;1.20;;
21820;SDS011;11073;48.586;12.066;2022-07-11T05:56:21;3.80;;;1.15;;
21820;SDS011;11073;48.586;12.066;2022-07-11T05:58:50;3.45;;;1.48;;
21820;SDS011;11073;48.586;12.066;2022-07-11T06:01:20;4.22;;;1.27;;
21820;SDS011;11073;48.586;12.066;2022-07-11T06:03:49;2.30;;;1.30;;
21820;SDS011;11073;48.586;12.066;2022-07-11T06:06:18;4.38;;;1.60;;
21820;SDS011;11073;48.586;12.066;2022-07-11T06:08:47;2.78;;;1.20;;
21820;SDS011;11073;48.586;12.066;2022-07-11T06:11:16;4.38;;;1.48;;
21820;SDS011;11073;48.586;12.066;2022-07-11T06:13:46;3.60;;;1.63;;
21820;SDS011;11073;48.586;12.066;2022-07-11T06:16:20;3.78;;;1.38;;
21820;SDS011;11073;48.586;12.066;2022-07-11T06:18:49;5.53;;;1.70;;
21820;SDS011;11073;48.586;12.066;2022-07-11T06:21:19;9.75;;;1.75;;
21820;SDS011;11073;48.586;12.066;2022-07-11T06:23:48;9.38;;;1.70;;
21820;SDS011;11073;48.586;12.066;2022-07-11T06:26:17;4.50;;;1.45;;
21820;SDS011;11073;48.586;12.066;2022-07-11T06:28:47;8.90;;;1.10;;
21820;SDS011;11073;48.586;12.066;2022-07-11T06:31:16;5.75;;;1.65;;
21820;SDS011;11073;48.586;12.066;2022-07-11T06:33:45;6.53;;;1.15;;
21820;SDS011;11073;48.586;12.066;2022-07-11T06:36:22;5.55;;;1.40;;
21820;SDS011;11073;48.586;12.066;2022-07-11T06:38:52;8.15;;;1.27;;
21820;SDS011;11073;48.586;12.066;2022-07-11T06:41:21;10.48;;;1.30;;
21820;SDS011;11073;48.586;12.066;2022-07-11T06:43:51;6.30;;;1.52;;
21820;SDS011;11073;48.586;12.066;2022-07-11T06:46:20;7.55;;;1.40;;
21820;SDS011;11073;48.586;12.066;2022-07-11T06:48:49;4.30;;;1.30;;
21820;SDS011;11073;48.586;12.066;2022-07-11T06:51:18;6.20;;;1.20;;
21820;SDS011;11073;48.586;12.066;2022-07-11T06:53:48;4.35;;;1.20;;
21820;SDS011;11073;48.586;12.066;2022-07-11T06:56:17;4.55;;;1.60;;
21820;SDS011;11073;48.586;12.066;2022-07-11T06:58:46;7.05;;;1.60;;
21820;SDS011;11073;48.586;12.066;2022-07-11T07:01:16;3.88;;;1.55;;
21820;SDS011;11073;48.586;12.066;2022-07-11T07:03:45;4.15;;;1.33;;
21820;SDS011;11073;48.586;12.066;2022-07-11T07:06:15;3.53;;;1.30;;
21820;SDS011;11073;48.586;12.066;2022-07-11T07:08:44;4.88;;;1.23;;
21820;SDS011;11073;48.586;12.066;2022-07-11T07:11:13;3.08;;;1.10;;
21820;SDS011;11073;48.586;12.066;2022-07-11T07:13:41;4.25;;;1.58;;
21820;SDS011;11073;48.586;12.066;2022-07-11T07:16:13;2.78;;;1.15;;
21820;SDS011;11073;48.586;12.066;2022-07-11T07:18:43;4.85;;;1.23;;
21820;SDS011;11073;48.586;12.066;2022-07-11T07:21:14;2.80;;;1.38;;
21820;SDS011;11073;48.586;12.066;2022-07-11T07:23:42;5.32;;;1.50;;
21820;SDS011;11073;48.586;12.066;2022-07-11T07:26:11;4.45;;;1.33;;
21820;SDS011;11073;48.586;12.066;2022-07-11T07:28:40;3.00;;;1.20;;
21820;SDS011;11073;48.586;12.066;2022-07-11T07:31:08;2.83;;;1.27;;
21820;SDS011;11073;48.586;12.066;2022-07-11T07:33:44;1.90;;;1.10;;
21820;SDS011;11073;48.586;12.066;2022-07-11T07:36:13;1.70;;;1.02;;
21820;SDS011;11073;48.586;12.066;2022-07-11T07:38:43;2.97;;;1.50;;
21820;SDS011;11073;48.586;12.066;2022-07-11T07:41:14;2.65;;;1.20;;
21820;SDS011;11073;48.586;12.066;2022-07-11T07:43:43;4.25;;;1.38;;
21820;SDS011;11073;48.586;12.066;2022-07-11T07:46:12;3.08;;;1.23;;
21820;SDS011;11073;48.586;12.066;2022-07-11T07:48:42;3.67;;;1.20;;
21820;SDS011;11073;48.586;12.066;2022-07-11T07:51:12;2.35;;;1.42;;
21820;SDS011;11073;48.586;12.066;2022-07-11T07:53:41;5.50;;;1.55;;
21820;SDS011;11073;48.586;12.066;2022-07-11T07:56:09;3.03;;;1.30;;
21820;SDS011;11073;48.586;12.066;2022-07-11T07:58:38;3.72;;;1.33;;
21820;SDS011;11073;48.586;12.066;2022-07-11T08:01:07;1.95;;;1.27;;
21820;SDS011;11073;48.586;12.066;2022-07-11T08:03:53;3.38;;;1.40;;
21820;SDS011;11073;48.586;12.066;2022-07-11T08:06:23;2.35;;;1.10;;
21820;SDS011;11073;48.586;12.066;2022-07-11T08:08:52;2.65;;;1.02;;
21820;SDS011;11073;48.586;12.066;2022-07-11T08:11:21;3.72;;;1.35;;
21820;SDS011;11073;48.586;12.066;2022-07-11T08:13:58;3.33;;;1.40;;
21820;SDS011;11073;48.586;12.066;2022-07-11T08:16:28;4.50;;;1.50;;
21820;SDS011;11073;48.586;12.066;2022-07-11T08:18:58;1.55;;;1.42;;
21820;SDS011;11073;48.586;12.066;2022-07-11T08:21:30;4.43;;;1.55;;
21820;SDS011;11073;48.586;12.066;2022-07-11T08:24:00;3.15;;;1.40;;
21820;SDS011;11073;48.586;12.066;2022-07-11T08:26:30;3.47;;;1.77;;
21820;SDS011;11073;48.586;12.066;2022-07-11T08:29:00;3.45;;;1.30;;
21820;SDS011;11073;48.586;12.066;2022-07-11T08:31:32;2.67;;;1.35;;
21820;SDS011;11073;48.586;12.066;2022-07-11T08:34:01;2.58;;;1.52;;
21820;SDS011;11073;48.586;12.066;2022-07-11T08:36:31;3.28;;;1.80;;
21820;SDS011;11073;48.586;12.066;2022-07-11T08:39:02;2.97;;;1.65;;
21820;SDS011;11073;48.586;12.066;2022-07-11T08:41:31;3.60;;;1.63;;
21820;SDS011;11073;48.586;12.066;2022-07-11T08:44:00;3.05;;;1.73;;
21820;SDS011;11073;48.586;12.066;2022-07-11T08:46:29;3.40;;;1.35;;
21820;SDS011;11073;48.586;12.066;2022-07-11T08:48:59;3.47;;;1.60;;
21820;SDS011;11073;48.586;12.066;2022-07-11T08:51:32;3.45;;;1.67;;
21820;SDS011;11073;48.586;12.066;2022-07-11T08:54:04;2.05;;;1.40;;
21820;SDS011;11073;48.586;12.066;2022-07-11T08:56:33;2.92;;;1.45;;
21820;SDS011;11073;48.586;12.066;2022-07-11T08:59:04;2.28;;;1.50;;
21820;SDS011;11073;48.586;12.066;2022-07-11T09:01:34;4.57;;;1.63;;
21820;SDS011;11073;48.586;12.066;2022-07-11T09:04:06;3.08;;;1.30;;
21820;SDS011;11073;48.586;12.066;2022-07-11T09:06:37;3.28;;;1.60;;
21820;SDS011;11073;48.586;12.066;2022-07-11T09:09:06;3.53;;;1.70;;
21820;SDS011;11073;48.586;12.066;2022-07-11T09:11:48;4.05;;;1.80;;
21820;SDS011;11073;48.586;12.066;2022-07-11T09:14:22;3.78;;;1.40;;
21820;SDS011;11073;48.586;12.066;2022-07-11T09:16:56;4.45;;;1.40;;
21820;SDS011;11073;48.586;12.066;2022-07-11T09:19:27;2.00;;;1.50;;
21820;SDS011;11073;48.586;12.066;2022-07-11T09:22:03;3.83;;;1.98;;
21820;SDS011;11073;48.586;12.066;2022-07-11T09:24:57;4.22;;;1.30;;
21820;SDS011;11073;48.586;12.066;2022-07-11T09:27:46;2.75;;;1.30;;
21820;SDS011;11073;48.586;12.066;2022-07-11T09:30:17;2.85;;;1.15;;
21820;SDS011;11073;48.586;12.066;2022-07-11T09:32:51;2.78;;;1.38;;
21820;SDS011;11073;48.586;12.066;2022-07-11T09:35:22;1.58;;;1.15;;
21820;SDS011;11073;48.586;12.066;2022-07-11T09:37:54;3.50;;;1.40;;
21820;SDS011;11073;48.586;12.066;2022-07-11T09:40:22;2.75;;;1.10;;
21820;SDS011;11073;48.586;12.066;2022-07-11T09:42:53;4.57;;;1.15;;
21820;SDS011;11073;48.586;12.066;2022-07-11T09:45:23;1.65;;;0.93;;
21820;SDS011;11073;48.586;12.066;2022-07-11T09:47:54;2.00;;;1.00;;
21820;SDS011;11073;48.586;12.066;2022-07-11T09:50:24;1.20;;;0.70;;
21820;SDS011;11073;48.586;12.066;2022-07-11T09:53:00;3.03;;;0.73;;
21820;SDS011;11073;48.586;12.066;2022-07-11T09:55:31;0.80;;;0.77;;
21820;SDS011;11073;48.586;12.066;2022-07-11T09:58:19;2.35;;;1.08;;
21820;SDS011;11073;48.586;12.066;2022-07-11T10:00:50;1.83;;;1.02;;
21820;SDS011;11073;48.586;12.066;2022-07-11T10:03:21;2.45;;;1.00;;
21820;SDS011;11073;48.586;12.066;2022-07-11T10:06:12;1.77;;;1.35;;
21820;SDS011;11073;48.586;12.066;2022-07-11T10:08:42;3.33;;;1.00;;
21820;SDS011;11073;48.586;12.066;2022-07-11T10:11:11;2.70;;;0.95;;
21820;SDS011;11073;48.586;12.066;2022-07-11T10:13:40;3.72;;;1.00;;
21820;SDS011;11073;48.586;12.066;2022-07-11T10:16:12;1.77;;;1.10;;
21820;SDS011;11073;48.586;12.066;2022-07-11T10:18:47;2.17;;;0.85;;
21820;SDS011;11073;48.586;12.066;2022-07-11T10:21:31;1.67;;;0.90;;
21820;SDS011;11073;48.586;12.066;2022-07-11T10:24:14;2.45;;;0.90;;
21820;SDS011;11073;48.586;12.066;2022-07-11T10:26:51;1.85;;;0.95;;
21820;SDS011;11073;48.586;12.066;2022-07-11T10:29:29;3.13;;;1.08;;
21820;SDS011;11073;48.586;12.066;2022-07-11T10:32:05;2.47;;;1.17;;
21820;SDS011;11073;48.586;12.066;2022-07-11T10:34:41;3.15;;;1.00;;
21820;SDS011;11073;48.586;12.066;2022-07-11T10:37:10;3.15;;;1.20;;
21820;SDS011;11073;48.586;12.066;2022-07-11T10:39:56;1.40;;;0.93;;
21820;SDS011;11073;48.586;12.066;2022-07-11T10:42:37;1.35;;;0.90;;
21820;SDS011;11073;48.586;12.066;2022-07-11T10:45:07;2.35;;;0.98;;
21820;SDS011;11073;48.586;12.066;2022-07-11T10:47:40;2.70;;;0.90;;
21820;SDS011;11073;48.586;12.066;2022-07-11T10:50:30;0.88;;;0.73;;
21820;SDS011;11073;48.586;12.066;2022-07-11T10:53:05;3.70;;;0.90;;
21820;SDS011;11073;48.586;12.066;2022-07-11T10:55:39;1.00;;;0.75;;
21820;SDS011;11073;48.586;12.066;2022-07-11T10:58:18;1.33;;;0.52;;
21820;SDS011;11073;48.586;12.066;2022-07-11T11:00:49;0.88;;;0.80;;
21820;SDS011;11073;48.586;12.066;2022-07-11T11:03:36;1.23;;;0.68;;
21820;SDS011;11073;48.586;12.066;2022-07-11T11:06:06;0.80;;;0.70;;
21820;SDS011;11073;48.586;12.066;2022-07-11T11:08:44;2.47;;;0.70;;
21820;SDS011;11073;48.586;12.066;2022-07-11T11:14:21;3.15;;;0.98;;
21820;SDS011;11073;48.586;12.066;2022-07-11T11:16:53;2.60;;;0.90;;
21820;SDS011;11073;48.586;12.066;2022-07-11T11:22:23;1.85;;;0.65;;
21820;SDS011;11073;48.586;12.066;2022-07-11T11:24:53;1.02;;;0.50;;
21820;SDS011;11073;48.586;12.066;2022-07-11T11:30:31;1.58;;;0.70;;
21820;SDS011;11073;48.586;12.066;2022-07-11T11:33:00;1.35;;;0.60;;
21820;SDS011;11073;48.586;12.066;2022-07-11T11:35:29;2.63;;;0.93;;
21820;SDS011;11073;48.586;12.066;2022-07-11T11:37:58;2.05;;;0.50;;
21820;SDS011;11073;48.586;12.066;2022-07-11T11:40:28;1.10;;;0.75;;
21820;SDS011;11073;48.586;12.066;2022-07-11T11:42:57;1.40;;;0.70;;
21820;SDS011;11073;48.586;12.066;2022-07-11T11:45:27;1.30;;;0.63;;
21820;SDS011;11073;48.586;12.066;2022-07-11T11:47:57;0.60;;;0.60;;
21820;SDS011;11073;48.586;12.066;2022-07-11T11:50:26;1.20;;;0.68;;
21820;SDS011;11073;48.586;12.066;2022-07-11T11:52:55;1.55;;;0.75;;
21820;SDS011;11073;48.586;12.066;2022-07-11T11:55:24;1.13;;;0.77;;
21820;SDS011;11073;48.586;12.066;2022-07-11T11:57:53;3.78;;;0.70;;
21820;SDS011;11073;48.586;12.066;2022-07-11T12:00:22;4.50;;;1.08;;
21820;SDS011;11073;48.586;12.066;2022-07-11T12:03:15;2.83;;;0.90;;
21820;SDS011;11073;48.586;12.066;2022-07-11T12:05:52;6.20;;;0.80;;
21820;SDS011;11073;48.586;12.066;2022-07-11T12:08:26;0.70;;;0.40;;
21820;SDS011;11073;48.586;12.066;2022-07-11T12:10:55;1.27;;;0.57;;
21820;SDS011;11073;48.586;12.066;2022-07-11T12:13:25;1.50;;;0.47;;
21820;SDS011;11073;48.586;12.066;2022-07-11T12:15:54;0.85;;;0.45;;
21820;SDS011;11073;48.586;12.066;2022-07-11T12:18:42;0.70;;;0.30;;
21820;SDS011;11073;48.586;12.066;2022-07-11T12:21:11;0.63;;;0.40;;
21820;SDS011;11073;48.586;12.066;2022-07-11T12:23:41;0.50;;;0.47;;
21820;SDS011;11073;48.586;12.066;2022-07-11T12:26:09;0.52;;;0.43;;
21820;SDS011;11073;48.586;12.066;2022-07-11T12:31:43;1.05;;;0.50;;
21820;SDS011;11073;48.586;12.066;2022-07-11T12:34:15;2.05;;;0.80;;
21820;SDS011;11073;48.586;12.066;2022-07-11T12:36:45;1.65;;;0.93;;
21820;SDS011;11073;48.586;12.066;2022-07-11T12:39:21;1.10;;;0.88;;
21820;SDS011;11073;48.586;12.066;2022-07-11T12:41:52;2.85;;;1.00;;
21820;SDS011;11073;48.586;12.066;2022-07-11T12:44:22;2.47;;;0.80;;
21820;SDS011;11073;48.586;12.066;2022-07-11T12:47:08;2.25;;;1.00;;
21820;SDS011;11073;48.586;12.066;2022-07-11T12:49:39;2.10;;;1.20;;
21820;SDS011;11073;48.586;12.066;2022-07-11T12:52:12;2.83;;;1.10;;
21820;SDS011;11073;48.586;12.066;2022-07-11T12:54:41;3.33;;;1.13;;
21820;SDS011;11073;48.586;12.066;2022-07-11T12:57:14;2.55;;;0.80;;
21820;SDS011;11073;48.586;12.066;2022-07-11T12:59:44;2.55;;;1.08;;
21820;SDS011;11073;48.586;12.066;2022-07-11T13:02:13;1.25;;;0.90;;
21820;SDS011;11073;48.586;12.066;2022-07-11T13:04:45;2.25;;;0.75;;
21820;SDS011;11073;48.586;12.066;2022-07-11T13:07:19;1.70;;;0.98;;
21820;SDS011;11073;48.586;12.066;2022-07-11T13:10:09;1.55;;;1.10;;
21820;SDS011;11073;48.586;12.066;2022-07-11T13:12:40;3.33;;;0.85;;
21820;SDS011;11073;48.586;12.066;2022-07-11T13:15:09;1.50;;;1.10;;
21820;SDS011;11073;48.586;12.066;2022-07-11T13:17:42;1.10;;;0.82;;
21820;SDS011;11073;48.586;12.066;2022-07-11T13:20:14;0.90;;;0.80;;
21820;SDS011;11073;48.586;12.066;2022-07-11T13:22:45;1.58;;;0.90;;
21820;SDS011;11073;48.586;12.066;2022-07-11T13:25:15;2.97;;;0.90;;
21820;SDS011;11073;48.586;12.066;2022-07-11T13:27:46;2.92;;;0.73;;
21820;SDS011;11073;48.586;12.066;2022-07-11T13:30:17;1.75;;;0.95;;
21820;SDS011;11073;48.586;12.066;2022-07-11T13:33:06;2.42;;;0.90;;
21820;SDS011;11073;48.586;12.066;2022-07-11T13:35:35;1.10;;;1.00;;
21820;SDS011;11073;48.586;12.066;2022-07-11T13:38:04;2.40;;;1.05;;
21820;SDS011;11073;48.586;12.066;2022-07-11T13:40:33;3.25;;;1.30;;
21820;SDS011;11073;48.586;12.066;2022-07-11T13:43:02;2.35;;;1.00;;
21820;SDS011;11073;48.586;12.066;2022-07-11T13:45:31;0.70;;;0.70;;
21820;SDS011;11073;48.586;12.066;2022-07-11T13:48:00;0.82;;;0.70;;
21820;SDS011;11073;48.586;12.066;2022-07-11T13:50:28;1.15;;;0.90;;
21820;SDS011;11073;48.586;12.066;2022-07-11T13:52:59;1.65;;;0.95;;
21820;SDS011;11073;48.586;12.066;2022-07-11T13:55:28;1.90;;;1.00;;
21820;SDS011;11073;48.586;12.066;2022-07-11T13:57:57;3.55;;;0.98;;
21820;SDS011;11073;48.586;12.066;2022-07-11T14:00:28;0.70;;;0.70;;
21820;SDS011;11073;48.586;12.066;2022-07-11T14:02:59;1.30;;;0.60;;
21820;SDS011;11073;48.586;12.066;2022-07-11T14:05:29;1.33;;;0.68;;
21820;SDS011;11073;48.586;12.066;2022-07-11T14:07:59;1.05;;;0.70;;
21820;SDS011;11073;48.586;12.066;2022-07-11T14:10:28;1.05;;;0.60;;
21820;SDS011;11073;48.586;12.066;2022-07-11T14:12:57;1.95;;;0.50;;
21820;SDS011;11073;48.586;12.066;2022-07-11T14:15:26;0.80;;;0.52;;
21820;SDS011;11073;48.586;12.066;2022-07-11T14:17:54;1.27;;;0.60;;
21820;SDS011;11073;48.586;12.066;2022-07-11T14:20:23;1.27;;;0.60;;
21820;SDS011;11073;48.586;12.066;2022-07-11T14:22:53;1.35;;;1.25;;
21820;SDS011;11073;48.586;12.066;2022-07-11T14:25:23;1.00;;;0.90;;
21820;SDS011;11073;48.586;12.066;2022-07-11T14:27:52;2.35;;;1.02;;
21820;SDS011;11073;48.586;12.066;2022-07-11T14:30:21;1.80;;;0.77;;
21820;SDS011;11073;48.586;12.066;2022-07-11T14:32:50;1.48;;;0.80;;
21820;SDS011;11073;48.586;12.066;2022-07-11T14:35:19;2.13;;;0.70;;
21820;SDS011;11073;48.586;12.066;2022-07-11T14:37:48;1.40;;;0.70;;
21820;SDS011;11073;48.586;12.066;2022-07-11T14:40:17;1.92;;;0.80;;
21820;SDS011;11073;48.586;12.066;2022-07-11T14:42:54;2.15;;;0.70;;
21820;SDS011;11073;48.586;12.066;2022-07-11T14:45:23;1.40;;;0.90;;
21820;SDS011;11073;48.586;12.066;2022-07-11T14:47:51;3.05;;;0.70;;
21820;SDS011;11073;48.586;12.066;2022-07-11T14:50:21;2.90;;;0.70;;
21820;SDS011;11073;48.586;12.066;2022-07-11T14:52:50;1.40;;;0.73;;
21820;SDS011;11073;48.586;12.066;2022-07-11T14:55:19;1.15;;;0.70;;
21820;SDS011;11073;48.586;12.066;2022-07-11T14:57:47;1.25;;;0.70;;
21820;SDS011;11073;48.586;12.066;2022-07-11T15:00:19;1.45;;;0.50;;
21820;SDS011;11073;48.586;12.066;2022-07-11T15:02:48;0.90;;;0.80;;
21820;SDS011;11073;48.586;12.066;2022-07-11T15:05:35;0.85;;;0.70;;
21820;SDS011;11073;48.586;12.066;2022-07-11T15:08:04;0.95;;;0.57;;